Time;durP1;ratioP1;P1;durP2;ratioP2;P2;SDS_P1;SDS_P2;PMS_P1;PMS_P2;Temp;Humidity;BMP_temperature;BMP_pressure;BME280_temperature;BME280_humidity;BME280_pressure;Samples;Min_cycle;Max_cycle;Signal;HPM_P1;HPM_P2
2021/04/27 00:00:19;;;;;;;15.35;12.85;;;14.40;99.90;;;;;;5048613;28;20041;-83
2021/04/27 00:02:44;;;;;;;17.55;12.65;;;14.40;99.90;;;;;;5052725;28;20444;-83
2021/04/27 00:05:15;;;;;;;16.83;13.85;;;14.40;99.90;;;;;;5044070;28;20160;-84
2021/04/27 00:07:42;;;;;;;16.45;12.88;;;14.30;99.90;;;;;;5040994;28;20025;-84
2021/04/27 00:10:10;;;;;;;13.13;11.73;;;14.30;99.90;;;;;;5048698;28;20033;-84
2021/04/27 00:12:36;;;;;;;17.25;13.02;;;14.30;99.90;;;;;;5049729;28;20033;-82
2021/04/27 00:15:06;;;;;;;13.88;12.25;;;14.40;99.90;;;;;;5053280;28;20033;-84
2021/04/27 00:17:32;;;;;;;15.32;12.73;;;14.30;99.90;;;;;;5051675;28;20029;-84
2021/04/27 00:19:58;;;;;;;15.55;13.40;;;14.40;99.90;;;;;;5042695;28;20033;-84
2021/04/27 00:22:23;;;;;;;16.38;13.40;;;14.40;99.90;;;;;;5040377;28;20025;-84
2021/04/27 00:24:49;;;;;;;16.23;12.75;;;14.40;99.90;;;;;;5048623;28;20116;-84
2021/04/27 00:27:14;;;;;;;14.75;12.60;;;14.40;99.90;;;;;;5048360;28;20042;-84
2021/04/27 00:29:40;;;;;;;15.88;13.27;;;14.40;99.90;;;;;;5047569;28;20039;-83
2021/04/27 00:32:06;;;;;;;19.05;13.45;;;14.40;99.90;;;;;;5048368;28;20041;-83
2021/04/27 00:34:31;;;;;;;16.15;14.27;;;14.40;99.90;;;;;;5046648;28;20493;-84
2021/04/27 00:36:57;;;;;;;19.35;13.02;;;14.40;99.90;;;;;;5037811;28;20029;-84
2021/04/27 00:39:23;;;;;;;15.35;12.48;;;14.40;99.90;;;;;;5048729;28;20109;-84
2021/04/27 00:41:48;;;;;;;16.58;12.55;;;14.40;99.90;;;;;;5054251;28;20081;-84
2021/04/27 00:44:15;;;;;;;14.45;12.00;;;14.40;99.90;;;;;;5047963;28;20374;-84
2021/04/27 00:46:40;;;;;;;13.95;12.13;;;14.40;99.90;;;;;;5047753;28;20043;-84
2021/04/27 00:49:06;;;;;;;15.32;12.52;;;14.40;99.90;;;;;;5048767;28;20424;-84
2021/04/27 00:51:34;;;;;;;15.73;12.55;;;14.50;99.90;;;;;;5032730;28;20026;-82
2021/04/27 00:54:03;;;;;;;19.33;13.60;;;14.40;99.90;;;;;;5053068;28;20144;-84
2021/04/27 00:56:29;;;;;;;15.68;14.07;;;14.40;99.90;;;;;;5050033;28;20025;-84
2021/04/27 00:58:55;;;;;;;15.15;13.55;;;14.40;99.90;;;;;;5046153;28;20108;-84
2021/04/27 01:01:23;;;;;;;17.65;14.23;;;14.30;99.90;;;;;;5048140;28;20025;-86
2021/04/27 01:03:49;;;;;;;15.68;13.98;;;14.30;99.90;;;;;;5048071;28;20063;-84
2021/04/27 01:06:17;;;;;;;17.48;13.35;;;14.30;99.90;;;;;;5039501;28;20052;-84
2021/04/27 01:09:07;;;;;;;16.75;14.82;;;14.30;99.90;;;;;;5052471;28;20039;-84
2021/04/27 01:12:01;;;;;;;16.30;14.10;;;14.20;99.90;;;;;;5049526;28;20481;-84
2021/04/27 01:14:26;;;;;;;16.00;14.30;;;14.30;99.90;;;;;;5047972;28;20037;-84
2021/04/27 01:16:57;;;;;;;16.60;14.18;;;14.70;99.90;;;;;;5047189;28;20025;-84
2021/04/27 01:19:37;;;;;;;18.08;14.43;;;14.40;99.90;;;;;;5046938;28;20087;-84
2021/04/27 01:22:05;;;;;;;16.40;14.55;;;14.30;99.90;;;;;;5034084;28;20025;-84
2021/04/27 01:24:39;;;;;;;17.17;15.13;;;14.40;99.90;;;;;;5047447;28;20026;-83
2021/04/27 01:27:06;;;;;;;18.90;15.48;;;14.40;99.90;;;;;;5051508;28;20500;-84
2021/04/27 01:29:34;;;;;;;18.17;15.05;;;14.30;99.90;;;;;;5044674;28;20120;-84
2021/04/27 01:32:02;;;;;;;18.77;14.32;;;14.30;99.90;;;;;;5045899;28;20079;-84
2021/04/27 01:34:40;;;;;;;16.83;15.02;;;14.30;99.90;;;;;;5045038;28;20036;-84
2021/04/27 01:37:09;;;;;;;15.93;14.20;;;14.30;99.90;;;;;;5036469;28;20021;-84
2021/04/27 01:39:36;;;;;;;17.77;15.50;;;14.50;99.90;;;;;;5047403;28;20433;-83
2021/04/27 01:42:04;;;;;;;18.65;14.95;;;14.20;99.90;;;;;;5051881;28;20507;-84
2021/04/27 01:44:32;;;;;;;17.75;15.10;;;14.30;99.90;;;;;;5049058;28;20055;-84
2021/04/27 01:46:58;;;;;;;17.25;14.80;;;14.20;99.90;;;;;;5047339;28;20072;-84
2021/04/27 01:49:25;;;;;;;19.52;14.50;;;14.20;99.90;;;;;;5046186;28;20068;-84
2021/04/27 01:51:51;;;;;;;17.48;15.13;;;14.20;99.90;;;;;;5032484;28;20485;-84
2021/04/27 01:54:20;;;;;;;17.20;15.38;;;14.20;99.90;;;;;;5048248;28;20128;-83
2021/04/27 01:56:45;;;;;;;19.33;15.27;;;14.20;99.90;;;;;;5051934;28;20070;-84
2021/04/27 01:59:11;;;;;;;18.23;14.95;;;14.20;99.90;;;;;;5046937;28;20029;-84
2021/04/27 02:01:37;;;;;;;19.13;15.57;;;14.20;99.90;;;;;;5046476;28;20033;-84
2021/04/27 02:04:02;;;;;;;17.88;15.90;;;14.20;99.90;;;;;;5045778;28;20115;-84
2021/04/27 02:06:29;;;;;;;17.25;14.32;;;14.20;99.90;;;;;;5032376;28;20494;-83
2021/04/27 02:09:07;;;;;;;19.58;15.35;;;14.30;99.90;;;;;;5052860;28;20060;-84
2021/04/27 02:11:36;;;;;;;15.27;13.65;;;14.40;99.90;;;;;;5049406;28;20029;-84
2021/04/27 02:14:03;;;;;;;16.70;14.60;;;14.40;99.90;;;;;;5046513;28;20037;-84
2021/04/27 02:16:36;;;;;;;18.48;15.00;;;14.30;99.90;;;;;;5046412;28;20037;-83
2021/04/27 02:19:03;;;;;;;17.38;14.77;;;14.40;99.90;;;;;;5046110;28;20028;-83
2021/04/27 02:21:30;;;;;;;17.30;13.90;;;14.40;99.90;;;;;;5028288;28;20022;-83
2021/04/27 02:23:56;;;;;;;16.42;14.20;;;14.50;99.90;;;;;;5052354;28;20104;-84
2021/04/27 02:26:22;;;;;;;17.75;14.50;;;14.40;99.90;;;;;;5045270;28;20083;-84
2021/04/27 02:28:50;;;;;;;18.17;14.48;;;14.30;99.90;;;;;;5046356;28;20025;-84
2021/04/27 02:31:15;;;;;;;17.60;14.35;;;14.30;99.90;;;;;;5045765;28;20080;-84
2021/04/27 02:33:43;;;;;;;17.60;13.88;;;14.30;99.90;;;;;;5045651;28;20429;-84
2021/04/27 02:36:09;;;;;;;19.13;14.32;;;14.20;99.90;;;;;;5035250;28;20036;-84
2021/04/27 02:38:35;;;;;;;18.33;13.85;;;14.30;99.90;;;;;;5049317;28;20036;-83
2021/04/27 02:41:01;;;;;;;17.88;13.95;;;14.30;99.90;;;;;;5045730;28;20020;-84
2021/04/27 02:43:27;;;;;;;18.50;14.32;;;14.20;99.90;;;;;;5046278;28;20035;-84
2021/04/27 02:45:53;;;;;;;15.45;13.13;;;14.30;99.90;;;;;;5046252;28;20055;-83
2021/04/27 02:48:25;;;;;;;16.85;13.57;;;14.30;99.90;;;;;;5047174;28;20029;-84
2021/04/27 02:50:56;;;;;;;16.88;14.27;;;14.30;99.90;;;;;;5024189;28;20022;-84
2021/04/27 02:53:23;;;;;;;16.42;14.10;;;14.30;99.90;;;;;;5044387;28;20039;-83
2021/04/27 02:55:49;;;;;;;15.60;14.00;;;14.50;99.90;;;;;;5045801;28;20037;-84
2021/04/27 02:58:16;;;;;;;16.02;13.52;;;14.50;99.90;;;;;;5045421;28;20029;-83
2021/04/27 03:00:42;;;;;;;18.27;14.43;;;14.10;99.90;;;;;;5046090;28;20052;-84
2021/04/27 03:03:07;;;;;;;16.45;14.23;;;14.10;99.90;;;;;;5049020;28;20032;-83
2021/04/27 03:05:33;;;;;;;17.75;14.30;;;14.20;99.90;;;;;;5034957;28;20029;-84
2021/04/27 03:07:59;;;;;;;16.65;14.23;;;14.10;99.90;;;;;;5042668;28;20065;-84
2021/04/27 03:10:25;;;;;;;15.60;13.82;;;14.10;99.90;;;;;;5044145;28;20037;-84
2021/04/27 03:12:51;;;;;;;16.13;13.48;;;14.00;99.90;;;;;;5044291;28;20020;-84
2021/04/27 03:15:17;;;;;;;14.98;13.35;;;14.00;99.90;;;;;;5046799;28;20056;-82
2021/04/27 03:17:43;;;;;;;17.23;13.35;;;14.10;99.90;;;;;;5050144;28;20017;-83
2021/04/27 03:20:12;;;;;;;15.57;13.15;;;14.10;99.90;;;;;;5038941;28;20132;-84
2021/04/27 03:22:37;;;;;;;17.20;13.52;;;14.10;99.90;;;;;;5045275;28;20021;-83
2021/04/27 03:25:05;;;;;;;17.80;13.93;;;14.00;99.90;;;;;;5045863;28;20029;-84
2021/04/27 03:27:31;;;;;;;15.95;13.65;;;13.90;99.90;;;;;;5044769;28;20584;-84
2021/04/27 03:29:57;;;;;;;16.13;13.15;;;14.10;99.90;;;;;;5047307;28;20381;-83
2021/04/27 03:32:22;;;;;;;16.08;13.60;;;13.90;99.90;;;;;;5045344;28;20057;-84
2021/04/27 03:34:48;;;;;;;14.65;13.07;;;14.00;99.90;;;;;;5033092;28;20065;-84
2021/04/27 03:37:14;;;;;;;15.38;13.20;;;14.10;99.90;;;;;;5040087;28;20139;-84
2021/04/27 03:39:40;;;;;;;16.08;12.80;;;14.00;99.90;;;;;;5047887;28;20013;-83
2021/04/27 03:42:06;;;;;;;13.75;12.27;;;13.90;99.90;;;;;;5053131;28;20431;-83
2021/04/27 03:44:32;;;;;;;15.00;12.15;;;13.90;99.90;;;;;;5051395;28;20021;-83
2021/04/27 03:46:58;;;;;;;16.67;13.05;;;14.30;99.90;;;;;;5047640;28;20032;-84
2021/04/27 03:49:24;;;;;;;16.55;13.63;;;14.00;99.90;;;;;;5043231;28;20037;-84
2021/04/27 03:51:50;;;;;;;15.00;13.25;;;13.90;99.90;;;;;;5049179;28;20036;-84
2021/04/27 03:54:16;;;;;;;14.98;13.38;;;14.00;99.90;;;;;;5050359;28;20480;-84
2021/04/27 03:56:42;;;;;;;18.13;13.43;;;14.00;99.90;;;;;;5053681;28;20033;-83
2021/04/27 03:59:07;;;;;;;14.60;12.88;;;14.00;99.90;;;;;;5048938;28;20170;-83
2021/04/27 04:01:34;;;;;;;15.98;13.45;;;14.00;99.90;;;;;;5048936;28;20040;-84
2021/04/27 04:04:00;;;;;;;17.85;12.60;;;14.30;99.90;;;;;;5042845;28;20025;-84
2021/04/27 04:06:25;;;;;;;14.15;12.65;;;14.00;99.90;;;;;;5034570;28;20022;-83
2021/04/27 04:08:51;;;;;;;15.95;13.18;;;14.00;99.90;;;;;;5054524;28;20418;-84
2021/04/27 04:11:17;;;;;;;15.68;12.82;;;14.00;99.90;;;;;;5048899;28;20477;-84
2021/04/27 04:13:42;;;;;;;13.93;12.43;;;14.20;99.90;;;;;;5043094;28;20367;-83
2021/04/27 04:16:08;;;;;;;14.23;12.82;;;13.90;99.90;;;;;;5048754;28;20041;-84
2021/04/27 04:18:33;;;;;;;15.93;13.13;;;13.90;99.90;;;;;;5048485;28;20079;-83
2021/04/27 04:20:59;;;;;;;14.93;12.43;;;13.90;99.90;;;;;;5049976;28;20028;-84
2021/04/27 04:23:26;;;;;;;16.00;13.13;;;13.90;99.90;;;;;;5048239;28;20484;-84
2021/04/27 04:25:51;;;;;;;15.10;13.27;;;13.90;99.90;;;;;;5046184;28;20473;-84
2021/04/27 04:28:17;;;;;;;15.88;13.02;;;13.90;99.90;;;;;;5035604;28;20059;-84
2021/04/27 04:30:43;;;;;;;14.13;12.68;;;14.10;99.90;;;;;;5047085;28;20160;-83
2021/04/27 04:33:08;;;;;;;16.13;12.93;;;13.80;99.90;;;;;;5052112;28;20401;-84
2021/04/27 04:35:34;;;;;;;16.98;13.10;;;13.80;99.90;;;;;;5034327;28;20037;-83
2021/04/27 04:38:00;;;;;;;16.33;13.23;;;14.30;99.90;;;;;;5045297;28;20111;-90
2021/04/27 04:40:26;;;;;;;15.90;13.15;;;13.80;99.90;;;;;;5047907;28;20021;-83
2021/04/27 04:42:52;;;;;;;15.13;12.35;;;14.20;99.90;;;;;;5048038;28;20047;-85
2021/04/27 04:45:18;;;;;;;13.93;12.18;;;13.80;99.90;;;;;;5049539;28;20057;-86
2021/04/27 04:47:44;;;;;;;14.02;12.50;;;13.80;99.90;;;;;;5053010;28;20481;-86
2021/04/27 04:50:12;;;;;;;14.32;12.35;;;14.20;99.90;;;;;;5033349;28;20038;-86
2021/04/27 04:52:38;;;;;;;17.70;12.95;;;13.80;99.90;;;;;;5041991;28;20017;-87
2021/04/27 04:55:05;;;;;;;13.95;12.18;;;14.00;99.90;;;;;;5048279;28;20111;-86
2021/04/27 04:57:31;;;;;;;16.67;11.98;;;13.60;99.90;;;;;;5040088;28;20061;-85
2021/04/27 04:59:57;;;;;;;16.40;12.38;;;13.60;99.90;;;;;;5053952;28;20021;-86
2021/04/27 05:02:23;;;;;;;14.35;12.27;;;13.90;99.90;;;;;;5046573;28;20119;-84
2021/04/27 05:04:48;;;;;;;13.77;11.82;;;14.00;99.90;;;;;;5047587;28;20456;-83
2021/04/27 05:07:14;;;;;;;14.18;12.07;;;14.10;99.90;;;;;;5046118;28;20025;-84
2021/04/27 05:09:41;;;;;;;15.18;12.25;;;14.20;99.90;;;;;;5047807;28;20059;-84
2021/04/27 05:12:08;;;;;;;14.73;12.57;;;13.90;99.90;;;;;;5039827;28;20112;-84
2021/04/27 05:14:37;;;;;;;14.50;12.77;;;13.90;99.90;;;;;;5050406;28;20102;-83
2021/04/27 05:17:03;;;;;;;16.52;12.88;;;14.00;99.90;;;;;;5047268;28;20021;-83
2021/04/27 05:19:30;;;;;;;17.20;12.98;;;14.00;99.90;;;;;;5047934;28;20090;-84
2021/04/27 05:21:56;;;;;;;15.68;13.02;;;14.30;99.90;;;;;;5047889;28;20092;-83
2021/04/27 05:24:22;;;;;;;14.38;12.88;;;14.00;99.90;;;;;;5047509;28;20176;-82
2021/04/27 05:26:48;;;;;;;17.27;12.95;;;14.10;99.90;;;;;;5041397;28;20026;-82
2021/04/27 05:29:14;;;;;;;15.45;12.75;;;14.10;99.90;;;;;;5045663;28;20029;-83
2021/04/27 05:31:40;;;;;;;17.75;12.77;;;14.10;99.90;;;;;;5047252;28;20521;-84
2021/04/27 05:34:06;;;;;;;16.55;12.90;;;14.10;99.90;;;;;;5046930;28;20493;-83
2021/04/27 05:36:31;;;;;;;16.77;12.98;;;14.20;99.90;;;;;;5047226;28;20034;-83
2021/04/27 05:38:58;;;;;;;14.25;12.60;;;14.10;99.90;;;;;;5053199;28;20154;-86
2021/04/27 05:41:23;;;;;;;15.98;12.65;;;14.10;99.90;;;;;;5036218;28;20103;-84
2021/04/27 05:43:49;;;;;;;15.77;12.65;;;14.10;99.90;;;;;;5041080;28;20071;-83
2021/04/27 05:46:14;;;;;;;17.58;12.85;;;14.10;99.90;;;;;;5045418;28;20040;-83
2021/04/27 05:48:40;;;;;;;14.80;12.25;;;14.30;99.90;;;;;;5046965;28;20033;-83
2021/04/27 05:51:06;;;;;;;16.00;13.23;;;14.20;99.90;;;;;;5051290;28;20021;-83
2021/04/27 05:53:32;;;;;;;15.10;12.20;;;14.20;99.90;;;;;;5044385;28;20047;-83
2021/04/27 05:55:58;;;;;;;17.17;12.88;;;14.20;99.90;;;;;;5037510;28;20033;-82
2021/04/27 05:58:26;;;;;;;15.52;12.95;;;14.20;99.90;;;;;;5039030;28;20025;-83
2021/04/27 06:00:52;;;;;;;15.30;12.55;;;14.20;99.90;;;;;;5046564;28;20025;-83
2021/04/27 06:03:18;;;;;;;14.55;12.77;;;14.20;99.90;;;;;;5031976;28;22919;-83
2021/04/27 06:05:44;;;;;;;22.05;14.50;;;14.20;99.90;;;;;;5051599;28;20022;-83
2021/04/27 06:08:09;;;;;;;17.55;13.45;;;14.30;99.90;;;;;;5046386;28;20033;-83
2021/04/27 06:10:35;;;;;;;18.25;13.90;;;14.40;99.90;;;;;;5038878;28;20558;-83
2021/04/27 06:13:00;;;;;;;15.98;12.90;;;14.50;99.90;;;;;;5034520;28;20389;-83
2021/04/27 06:15:26;;;;;;;16.85;13.68;;;14.50;99.90;;;;;;5046962;28;20030;-83
2021/04/27 06:17:52;;;;;;;15.27;13.70;;;14.60;99.90;;;;;;5050125;28;20025;-84
2021/04/27 06:20:17;;;;;;;18.83;14.45;;;14.70;99.90;;;;;;5038018;28;20452;-82
2021/04/27 06:22:43;;;;;;;20.27;14.18;;;14.70;99.90;;;;;;5041100;28;20036;-84
2021/04/27 06:25:11;;;;;;;17.25;14.02;;;14.60;99.90;;;;;;5046477;28;20061;-84
2021/04/27 06:27:37;;;;;;;18.83;14.70;;;14.60;99.90;;;;;;5030095;28;20113;-81
2021/04/27 06:30:05;;;;;;;17.88;14.45;;;14.50;99.90;;;;;;5050847;28;20029;-84
2021/04/27 06:32:31;;;;;;;17.15;14.40;;;14.50;99.90;;;;;;5046966;28;20056;-83
2021/04/27 06:34:56;;;;;;;19.80;14.75;;;14.50;99.90;;;;;;5046001;28;20033;-82
2021/04/27 06:37:23;;;;;;;17.88;14.93;;;14.40;99.90;;;;;;5046259;28;20504;-82
2021/04/27 06:39:49;;;;;;;20.33;15.32;;;14.50;99.90;;;;;;5044268;28;20214;-84
2021/04/27 06:42:15;;;;;;;18.85;14.77;;;14.50;99.90;;;;;;5029264;28;20489;-84
2021/04/27 06:44:41;;;;;;;21.80;16.30;;;14.50;99.90;;;;;;5049992;28;20060;-84
2021/04/27 06:47:08;;;;;;;19.58;16.23;;;14.40;99.90;;;;;;5045739;28;20027;-83
2021/04/27 06:49:35;;;;;;;22.45;17.88;;;14.50;99.90;;;;;;5045070;28;20040;-84
2021/04/27 06:52:00;;;;;;;18.08;16.17;;;14.50;99.90;;;;;;5046051;28;20374;-83
2021/04/27 06:54:26;;;;;;;22.08;17.05;;;14.50;99.90;;;;;;5013883;28;20038;-84
2021/04/27 06:56:52;;;;;;;19.08;15.52;;;14.70;99.90;;;;;;5031248;28;20133;-83
2021/04/27 06:59:20;;;;;;;21.73;17.15;;;14.80;99.90;;;;;;5045258;28;20028;-83
2021/04/27 07:01:47;;;;;;;20.52;15.70;;;14.80;99.90;;;;;;5045549;28;20025;-83
2021/04/27 07:04:12;;;;;;;19.08;15.98;;;15.00;99.90;;;;;;5044604;28;20017;-84
2021/04/27 07:06:38;;;;;;;24.02;17.30;;;15.00;99.90;;;;;;5044055;28;20463;-84
2021/04/27 07:09:03;;;;;;;22.23;17.35;;;15.10;99.90;;;;;;5049345;28;20112;-83
2021/04/27 07:11:31;;;;;;;19.88;16.20;;;15.00;99.90;;;;;;5027516;28;20069;-83
2021/04/27 07:13:57;;;;;;;19.52;16.67;;;15.50;99.90;;;;;;5035638;28;20032;-84
2021/04/27 07:16:23;;;;;;;21.75;16.48;;;15.20;99.90;;;;;;5045150;28;20037;-81
2021/04/27 07:18:48;;;;;;;19.83;16.02;;;15.30;99.90;;;;;;5045441;28;20032;-83
2021/04/27 07:21:16;;;;;;;18.25;16.13;;;15.50;99.90;;;;;;5047881;28;20416;-83
2021/04/27 07:23:41;;;;;;;21.20;16.35;;;15.40;99.90;;;;;;5041145;28;20409;-84
2021/04/27 07:26:08;;;;;;;18.08;16.05;;;15.80;99.90;;;;;;5043466;28;20026;-83
2021/04/27 07:28:34;;;;;;;19.17;15.40;;;15.80;99.90;;;;;;5045339;28;20021;-83
2021/04/27 07:31:00;;;;;;;20.98;16.85;;;15.70;99.90;;;;;;5045413;28;20123;-83
2021/04/27 07:33:25;;;;;;;21.08;16.30;;;15.80;99.90;;;;;;5046780;28;20113;-83
2021/04/27 07:35:51;;;;;;;18.23;15.40;;;16.00;99.90;;;;;;5051263;28;20440;-83
2021/04/27 07:38:17;;;;;;;20.45;15.40;;;16.30;99.90;;;;;;5036803;28;20041;-82
2021/04/27 07:40:42;;;;;;;22.40;16.67;;;16.30;99.90;;;;;;5038388;28;20112;-83
2021/04/27 07:43:08;;;;;;;19.15;16.27;;;16.20;99.90;;;;;;5043928;28;20044;-83
2021/04/27 07:45:34;;;;;;;20.15;15.52;;;16.40;99.90;;;;;;5042843;28;20030;-83
2021/04/27 07:48:06;;;;;;;21.17;16.13;;;16.80;99.90;;;;;;5046372;28;20028;-83
2021/04/27 07:50:32;;;;;;;23.13;15.15;;;16.70;99.90;;;;;;5045802;28;20037;-83
2021/04/27 07:52:57;;;;;;;18.67;14.88;;;17.30;99.90;;;;;;5044761;28;20389;-83
2021/04/27 07:55:23;;;;;;;18.08;15.38;;;17.20;99.90;;;;;;5045372;28;20033;-83
2021/04/27 07:57:49;;;;;;;21.73;16.52;;;17.20;99.90;;;;;;5045343;28;20024;-83
2021/04/27 08:00:16;;;;;;;19.00;15.18;;;17.20;99.90;;;;;;5046248;28;20036;-83
2021/04/27 08:02:42;;;;;;;17.90;14.93;;;17.50;99.90;;;;;;5028910;28;20405;-83
2021/04/27 08:05:09;;;;;;;17.65;14.27;;;17.70;99.90;;;;;;5041669;28;20025;-82
2021/04/27 08:07:36;;;;;;;19.23;14.32;;;18.00;99.90;;;;;;5044175;28;20055;-83
2021/04/27 08:10:04;;;;;;;17.45;14.88;;;18.40;99.90;;;;;;5045654;28;20052;-83
2021/04/27 08:12:29;;;;;;;18.10;15.63;;;18.40;99.90;;;;;;5045581;28;20026;-83
2021/04/27 08:14:55;;;;;;;19.27;15.45;;;18.20;99.90;;;;;;5043318;28;20029;-83
2021/04/27 08:17:22;;;;;;;21.73;15.23;;;18.30;99.90;;;;;;5040113;28;20104;-83
2021/04/27 08:19:48;;;;;;;17.02;15.18;;;18.80;99.90;;;;;;5044779;28;20462;-83
2021/04/27 08:22:14;;;;;;;20.33;15.43;;;18.90;99.90;;;;;;5046664;28;20099;-83
2021/04/27 08:24:44;;;;;;;17.95;15.65;;;19.10;99.90;;;;;;5048563;28;20029;-83
2021/04/27 08:27:12;;;;;;;18.25;15.77;;;18.90;99.90;;;;;;5051288;28;20366;-83
2021/04/27 08:29:37;;;;;;;19.20;15.88;;;19.10;99.90;;;;;;5050366;28;20469;-83
2021/04/27 08:32:03;;;;;;;19.80;16.25;;;19.10;99.90;;;;;;5042606;28;20095;-83
2021/04/27 08:34:29;;;;;;;16.38;14.68;;;19.10;99.90;;;;;;5047901;28;20044;-83
2021/04/27 08:36:55;;;;;;;17.95;16.00;;;19.30;99.90;;;;;;5048145;28;20099;-83
2021/04/27 08:39:20;;;;;;;17.42;15.48;;;19.40;99.90;;;;;;5050098;28;20029;-84
2021/04/27 08:41:46;;;;;;;17.77;14.95;;;19.80;99.90;;;;;;5053883;28;20017;-83
2021/04/27 08:44:12;;;;;;;19.85;16.45;;;20.00;99.90;;;;;;5048631;28;20041;-84
2021/04/27 08:46:38;;;;;;;17.90;15.25;;;20.00;99.90;;;;;;5042730;28;20124;-83
2021/04/27 08:49:04;;;;;;;19.30;16.35;;;19.70;99.90;;;;;;5047968;28;20052;-85
2021/04/27 08:51:30;;;;;;;19.00;15.82;;;19.90;99.90;;;;;;5047505;28;20064;-83
2021/04/27 08:53:55;;;;;;;19.85;16.42;;;19.20;99.90;;;;;;5054388;28;20029;-84
2021/04/27 08:56:21;;;;;;;18.33;15.35;;;19.40;99.90;;;;;;5037855;28;20032;-84
2021/04/27 08:58:47;;;;;;;20.13;16.10;;;19.70;99.90;;;;;;5048445;28;20052;-84
2021/04/27 09:01:14;;;;;;;16.48;14.73;;;19.50;99.90;;;;;;5042329;28;20504;-83
2021/04/27 09:03:45;;;;;;;16.30;14.55;;;19.50;99.90;;;;;;5047996;28;20037;-83
2021/04/27 09:06:13;;;;;;;19.63;15.50;;;19.50;99.90;;;;;;5050577;28;20029;-82
2021/04/27 09:08:40;;;;;;;19.33;15.73;;;19.60;99.90;;;;;;5050720;28;20032;-84
2021/04/27 09:11:26;;;;;;;19.05;14.82;;;19.90;99.90;;;;;;5044723;28;20025;-83
2021/04/27 09:14:08;;;;;;;17.88;15.00;;;19.80;99.90;;;;;;5047811;28;20037;-83
2021/04/27 09:16:34;;;;;;;19.15;14.40;;;19.60;99.90;;;;;;5035997;28;20143;-83
2021/04/27 09:19:01;;;;;;;17.50;14.82;;;19.80;99.90;;;;;;5047016;28;20493;-83
2021/04/27 09:21:35;;;;;;;16.30;14.18;;;19.90;99.90;;;;;;5048242;28;20064;-83
2021/04/27 09:24:14;;;;;;;15.57;13.88;;;19.90;99.90;;;;;;5047606;28;20560;-84
2021/04/27 09:26:42;;;;;;;17.20;13.95;;;20.10;99.90;;;;;;5050579;28;20033;-83
2021/04/27 09:29:08;;;;;;;18.92;14.20;;;20.20;99.90;;;;;;5044856;28;20028;-85
2021/04/27 09:31:36;;;;;;;16.85;14.15;;;20.30;99.90;;;;;;5038239;28;20044;-84
2021/04/27 09:34:23;;;;;;;17.42;14.35;;;20.40;99.90;;;;;;5036648;28;20493;-83
2021/04/27 09:36:55;;;;;;;20.85;14.82;;;20.20;99.90;;;;;;5046230;28;20052;-85
2021/04/27 09:39:31;;;;;;;18.95;14.80;;;20.40;99.90;;;;;;5047195;28;20034;-84
2021/04/27 09:42:03;;;;;;;17.95;14.80;;;20.70;99.90;;;;;;5035505;28;20022;-85
2021/04/27 09:44:32;;;;;;;17.65;14.93;;;21.20;99.90;;;;;;5030684;28;20025;-85
2021/04/27 09:47:31;;;;;;;16.40;14.60;;;21.30;99.90;;;;;;5043256;28;20515;-85
2021/04/27 09:50:08;;;;;;;17.05;15.25;;;21.70;99.90;;;;;;5047276;28;20021;-85
2021/04/27 09:52:46;;;;;;;17.70;13.95;;;21.80;99.90;;;;;;5035027;28;20594;-84
2021/04/27 09:55:16;;;;;;;17.08;14.27;;;22.00;99.90;;;;;;5046715;28;20040;-84
2021/04/27 09:57:53;;;;;;;17.90;15.02;;;21.60;99.90;;;;;;5046802;28;20014;-85
2021/04/27 10:00:28;;;;;;;16.08;14.40;;;21.40;99.90;;;;;;5046917;28;20034;-85
2021/04/27 10:02:56;;;;;;;15.30;13.70;;;21.30;99.90;;;;;;5044499;28;20100;-83
2021/04/27 10:05:22;;;;;;;19.25;14.25;;;21.50;99.90;;;;;;5046045;28;20036;-85
2021/04/27 10:07:48;;;;;;;18.55;13.32;;;21.30;99.90;;;;;;5031675;28;20049;-84
2021/04/27 10:10:16;;;;;;;16.50;12.68;;;21.10;99.90;;;;;;5036786;28;20025;-91
2021/04/27 10:12:42;;;;;;;17.00;13.63;;;21.20;99.90;;;;;;5046466;28;20025;-84
2021/04/27 10:15:09;;;;;;;16.15;13.75;;;21.20;99.90;;;;;;5049817;28;20037;-84
2021/04/27 10:17:35;;;;;;;15.70;13.73;;;21.30;99.90;;;;;;5050300;28;20024;-86
2021/04/27 10:20:04;;;;;;;15.57;13.45;;;21.70;99.90;;;;;;5045632;28;20428;-86
2021/04/27 10:22:30;;;;;;;15.70;13.18;;;21.90;99.90;;;;;;5040861;28;20021;-86
2021/04/27 10:24:57;;;;;;;17.42;13.20;;;21.90;99.90;;;;;;5046684;28;20059;-87
2021/04/27 10:27:27;;;;;;;15.95;13.52;;;22.20;99.90;;;;;;5046807;28;20551;-86
2021/04/27 10:30:16;;;;;;;15.20;13.52;;;22.40;99.90;;;;;;5053082;28;20120;-87
2021/04/27 10:32:42;;;;;;;14.88;13.05;;;22.50;99.90;;;;;;5045781;28;20049;-86
2021/04/27 10:35:11;;;;;;;18.17;13.18;;;22.50;99.90;;;;;;5046664;28;20102;-87
2021/04/27 10:37:59;;;;;;;14.57;13.07;;;22.60;99.90;;;;;;5045279;28;20111;-86
2021/04/27 10:40:43;;;;;;;14.60;12.88;;;23.40;99.90;;;;;;5044297;28;20075;-87
2021/04/27 10:43:27;;;;;;;12.73;11.43;;;25.80;99.90;;;;;;5044624;28;20028;-87
2021/04/27 10:46:02;;;;;;;14.18;12.00;;;30.00;99.90;;;;;;5045733;28;20029;-88
2021/04/27 10:48:45;;;;;;;16.98;13.02;;;32.40;99.90;;;;;;5015407;28;20018;-86
2021/04/27 10:51:23;;;;;;;14.27;12.05;;;32.40;99.90;;;;;;5044702;28;20036;-88
2021/04/27 10:54:20;;;;;;;14.85;12.60;;;33.10;99.90;;;;;;5046550;28;20040;-87
2021/04/27 10:56:52;;;;;;;13.57;12.18;;;34.00;99.90;;;;;;5051365;28;20118;-87
2021/04/27 10:59:55;;;;;;;13.23;11.77;;;35.50;99.90;;;;;;5033997;28;20056;-87
2021/04/27 11:02:29;;;;;;;13.75;11.60;;;34.60;99.90;;;;;;5043622;28;20037;-87
2021/04/27 11:05:01;;;;;;;14.20;11.68;;;34.40;99.90;;;;;;5046734;28;20070;-88
2021/04/27 11:07:26;;;;;;;14.18;12.70;;;34.50;99.90;;;;;;5037951;28;20029;-87
2021/04/27 11:09:59;;;;;;;13.82;12.43;;;35.60;99.90;;;;;;5046433;28;20405;-93
2021/04/27 11:12:34;;;;;;;12.48;10.73;;;35.50;99.90;;;;;;5045073;28;20033;-92
2021/04/27 11:15:10;;;;;;;12.25;10.95;;;36.00;99.90;;;;;;5044525;28;20112;-95
2021/04/27 11:17:41;;;;;;;13.35;12.05;;;35.80;99.90;;;;;;5049594;28;20354;-86
2021/04/27 11:20:10;;;;;;;12.65;11.45;;;35.90;99.90;;;;;;5045574;28;20033;-86
2021/04/27 11:22:49;;;;;;;12.30;11.10;;;37.20;99.90;;;;;;5040319;28;20531;-85
2021/04/27 11:25:34;;;;;;;14.02;11.60;;;37.50;99.90;;;;;;5045451;28;20049;-85
2021/04/27 11:28:01;;;;;;;13.55;11.07;;;38.30;99.90;;;;;;5047399;28;20017;-86
2021/04/27 11:30:34;;;;;;;13.18;10.63;;;37.50;99.90;;;;;;5012879;28;20109;-85
2021/04/27 11:33:07;;;;;;;10.32;9.23;;;37.90;99.90;;;;;;5044073;28;20025;-85
2021/04/27 11:35:40;;;;;;;10.27;9.23;;;37.00;99.90;;;;;;5047872;28;20527;-86
2021/04/27 11:38:06;;;;;;;11.63;9.00;;;36.10;99.90;;;;;;5035339;28;20457;-85
2021/04/27 11:40:36;;;;;;;11.63;10.48;;;37.30;99.90;;;;;;5045701;28;20104;-85
2021/04/27 11:43:12;;;;;;;12.32;9.65;;;37.30;99.90;;;;;;5044695;28;20145;-86
2021/04/27 11:45:46;;;;;;;11.20;9.20;;;37.50;99.90;;;;;;5045617;28;20032;-86
2021/04/27 11:48:19;;;;;;;10.18;9.05;;;37.40;99.90;;;;;;5048288;28;20028;-86
2021/04/27 11:50:45;;;;;;;11.40;8.13;;;37.00;99.90;;;;;;5047732;28;20505;-86
2021/04/27 11:53:16;;;;;;;10.40;9.40;;;38.90;99.90;;;;;;5043106;28;20057;-86
2021/04/27 11:55:46;;;;;;;12.57;10.23;;;37.80;99.90;;;;;;5035175;28;20146;-86
2021/04/27 11:58:14;;;;;;;10.13;8.50;;;37.30;99.90;;;;;;5037683;28;20024;-86
2021/04/27 12:00:53;;;;;;;10.25;9.35;;;37.20;99.90;;;;;;5049665;28;20026;-86
2021/04/27 12:03:21;;;;;;;10.23;9.23;;;36.40;99.90;;;;;;5047015;28;20034;-86
2021/04/27 12:05:47;;;;;;;9.93;7.78;;;35.40;99.90;;;;;;5049947;28;20030;-86
2021/04/27 12:08:22;;;;;;;12.18;10.20;;;36.50;99.90;;;;;;5047702;28;20040;-86
2021/04/27 12:11:16;;;;;;;9.55;8.65;;;36.50;99.90;;;;;;5048391;28;20047;-86
2021/04/27 12:13:49;;;;;;;11.70;8.82;;;35.90;99.90;;;;;;5027898;28;20029;-86
2021/04/27 12:16:18;;;;;;;10.32;8.85;;;36.70;99.90;;;;;;5047057;28;20072;-85
2021/04/27 12:19:00;;;;;;;9.00;8.10;;;37.30;99.90;;;;;;5045165;28;20097;-85
2021/04/27 12:21:37;;;;;;;9.10;8.20;;;36.50;99.90;;;;;;5048085;28;20574;-85
2021/04/27 12:24:16;;;;;;;9.50;8.57;;;36.20;99.90;;;;;;5054225;28;20025;-85
2021/04/27 12:26:52;;;;;;;9.60;8.70;;;36.30;99.90;;;;;;5040287;28;20112;-85
2021/04/27 12:29:26;;;;;;;9.45;8.43;;;36.20;99.90;;;;;;5047725;28;20076;-85
2021/04/27 12:31:53;;;;;;;9.32;8.30;;;36.30;99.90;;;;;;5048983;28;20412;-85
2021/04/27 12:34:19;;;;;;;10.00;9.00;;;36.90;99.90;;;;;;5048482;28;20033;-85